Time;durP1;ratioP1;P1;durP2;ratioP2;P2;SDS_P1;SDS_P2;PMS_P1;PMS_P2;Temp;Humidity;BMP_temperature;BMP_pressure;BME280_temperature;BME280_humidity;BME280_pressure;Samples;Min_cycle;Max_cycle;Signal;HPM_P1;HPM_P2
2023/01/23 00:00:51;;;;;;;17.37;11.73;;;0.90;99.90;;;;;;7380345;19;20355;-77
2023/01/23 00:03:17;;;;;;;15.25;11.35;;;0.90;99.90;;;;;;7382423;19;20841;-76
2023/01/23 00:05:43;;;;;;;16.70;10.57;;;1.00;99.90;;;;;;7382622;19;20378;-83
2023/01/23 00:08:09;;;;;;;15.98;9.45;;;1.00;99.90;;;;;;7383275;19;21265;-83
2023/01/23 00:10:37;;;;;;;16.08;10.23;;;1.00;99.90;;;;;;7380050;19;20347;-80
2023/01/23 00:13:02;;;;;;;20.88;12.05;;;1.00;99.90;;;;;;7381937;19;20321;-80
2023/01/23 00:15:28;;;;;;;17.70;10.87;;;1.10;99.90;;;;;;7380929;19;20336;-78
2023/01/23 00:17:53;;;;;;;16.83;11.25;;;1.00;99.90;;;;;;7384147;19;20317;-83
2023/01/23 00:20:19;;;;;;;17.23;11.30;;;1.00;99.90;;;;;;7380059;19;20300;-81
2023/01/23 00:22:44;;;;;;;17.02;12.35;;;1.00;99.90;;;;;;7382156;19;20340;-82
2023/01/23 00:25:10;;;;;;;20.20;13.20;;;1.00;99.90;;;;;;7382121;19;20331;-83
2023/01/23 00:27:36;;;;;;;18.50;11.15;;;1.00;99.90;;;;;;7381538;19;20371;-82
2023/01/23 00:30:02;;;;;;;18.52;12.18;;;1.00;99.90;;;;;;7380428;19;20321;-81
2023/01/23 00:32:28;;;;;;;20.17;12.98;;;1.00;99.90;;;;;;7379507;19;20336;-77
2023/01/23 00:34:54;;;;;;;19.60;13.17;;;1.00;99.90;;;;;;7383087;19;20340;-77
2023/01/23 00:37:19;;;;;;;20.08;13.68;;;0.90;99.90;;;;;;7381708;19;20843;-80
2023/01/23 00:39:45;;;;;;;18.37;12.60;;;1.00;99.90;;;;;;7379326;19;20336;-76
2023/01/23 00:42:11;;;;;;;20.73;11.95;;;1.00;99.90;;;;;;7380463;19;20337;-77
2023/01/23 00:44:36;;;;;;;18.85;13.10;;;1.00;99.90;;;;;;7379511;19;20348;-79
2023/01/23 00:47:02;;;;;;;19.43;13.37;;;1.00;99.90;;;;;;7381050;19;20333;-84
2023/01/23 00:49:28;;;;;;;28.25;15.45;;;1.00;99.90;;;;;;7378088;19;20368;-79
2023/01/23 00:51:55;;;;;;;18.15;13.18;;;1.00;99.90;;;;;;7376851;19;20374;-79
2023/01/23 00:54:21;;;;;;;20.80;14.05;;;1.00;99.90;;;;;;7375946;19;20321;-82
2023/01/23 00:56:47;;;;;;;19.42;13.50;;;1.00;99.90;;;;;;7379773;19;20345;-82
2023/01/23 00:59:13;;;;;;;18.48;10.55;;;1.10;99.90;;;;;;7374127;19;20309;-77
2023/01/23 01:01:39;;;;;;;21.77;13.30;;;1.00;99.90;;;;;;7378695;19;20416;-76
2023/01/23 01:04:05;;;;;;;23.98;14.68;;;1.10;99.90;;;;;;7376850;19;20882;-85
2023/01/23 01:06:30;;;;;;;23.95;14.48;;;1.00;99.90;;;;;;7378118;19;20344;-83
2023/01/23 01:08:57;;;;;;;20.75;13.45;;;1.00;99.90;;;;;;7375767;19;20316;-81
2023/01/23 01:11:23;;;;;;;28.23;15.90;;;1.10;99.90;;;;;;7376135;19;22103;-82
2023/01/23 01:13:49;;;;;;;27.63;16.33;;;1.10;99.90;;;;;;7377201;19;20861;-78
2023/01/23 01:16:14;;;;;;;28.48;15.88;;;1.00;99.90;;;;;;7378000;19;20426;-86
2023/01/23 01:18:40;;;;;;;24.35;14.25;;;1.00;99.90;;;;;;7375453;19;20356;-77
2023/01/23 01:21:07;;;;;;;25.63;15.80;;;1.00;99.90;;;;;;7373983;19;20317;-80
2023/01/23 01:23:33;;;;;;;24.63;15.98;;;1.00;99.90;;;;;;7376272;19;20364;-83
2023/01/23 01:25:59;;;;;;;26.83;16.13;;;1.00;99.90;;;;;;7377841;19;20313;-80
2023/01/23 01:28:27;;;;;;;27.50;16.88;;;1.00;99.90;;;;;;7377532;19;20704;-81
2023/01/23 01:30:52;;;;;;;28.25;16.30;;;1.00;99.90;;;;;;7371949;19;20330;-79
2023/01/23 01:33:18;;;;;;;27.25;16.25;;;1.00;99.90;;;;;;7382612;19;21120;-80
2023/01/23 01:35:43;;;;;;;27.37;14.97;;;0.90;99.90;;;;;;7382745;19;20376;-78
2023/01/23 01:38:09;;;;;;;23.08;14.50;;;0.90;99.90;;;;;;7358435;19;20663;-77
2023/01/23 01:40:35;;;;;;;26.77;16.53;;;0.90;99.90;;;;;;7379375;19;20337;-78
2023/01/23 01:43:04;;;;;;;26.23;17.80;;;0.90;99.90;;;;;;7382321;19;20309;-78
2023/01/23 01:46:01;;;;;;;29.90;17.60;;;0.90;99.90;;;;;;7381731;19;20416;-80
2023/01/23 01:48:37;;;;;;;30.25;17.35;;;0.90;99.90;;;;;;7279449;19;2004309;-75
2023/01/23 01:51:06;;;;;;;22.70;14.80;;;0.90;99.90;;;;;;7380917;19;20329;-82
2023/01/23 01:53:31;;;;;;;28.50;16.15;;;0.90;99.90;;;;;;7380612;19;20341;-77
2023/01/23 01:55:57;;;;;;;28.17;17.30;;;0.90;99.90;;;;;;7381242;19;20331;-75
2023/01/23 01:58:22;;;;;;;29.00;16.43;;;0.90;99.90;;;;;;7383500;19;22208;-79
2023/01/23 02:00:48;;;;;;;27.63;16.83;;;1.00;99.90;;;;;;7373222;19;20383;-78
2023/01/23 02:03:14;;;;;;;27.23;15.77;;;0.90;99.90;;;;;;7380491;19;20347;-83
2023/01/23 02:05:43;;;;;;;25.30;16.90;;;0.90;99.90;;;;;;7380777;19;20344;-80
2023/01/23 02:08:30;;;;;;;29.33;18.23;;;0.90;99.90;;;;;;7374554;19;20367;-85
2023/01/23 02:11:00;;;;;;;28.90;17.05;;;0.90;99.90;;;;;;7274979;19;2004350;-76
2023/01/23 02:13:34;;;;;;;28.37;16.77;;;0.90;99.90;;;;;;7380054;19;20870;-83
2023/01/23 02:16:12;;;;;;;28.23;16.70;;;0.90;99.90;;;;;;7278032;19;2004536;-76
2023/01/23 02:18:43;;;;;;;22.85;12.45;;;0.90;99.90;;;;;;7377099;19;20356;-83
2023/01/23 02:21:09;;;;;;;30.95;17.30;;;1.00;99.90;;;;;;7377532;19;20321;-84
2023/01/23 02:23:47;;;;;;;29.47;17.03;;;1.00;99.90;;;;;;7378960;19;20381;-78
2023/01/23 02:26:19;;;;;;;27.92;17.42;;;1.00;99.90;;;;;;7378890;19;20336;-77
2023/01/23 02:28:46;;;;;;;30.00;17.48;;;0.90;99.90;;;;;;7379260;19;20357;-77
2023/01/23 02:31:16;;;;;;;26.10;15.87;;;0.90;99.90;;;;;;7377013;19;20689;-79
2023/01/23 02:33:45;;;;;;;29.90;17.40;;;0.90;99.90;;;;;;7381473;19;20357;-82
2023/01/23 02:36:11;;;;;;;28.52;17.65;;;0.90;99.90;;;;;;7386011;19;20344;-76
2023/01/23 02:38:41;;;;;;;27.23;16.10;;;0.90;99.90;;;;;;7381247;19;20352;-76
2023/01/23 02:41:07;;;;;;;22.70;13.82;;;0.90;99.90;;;;;;7375248;19;20329;-77
2023/01/23 02:43:34;;;;;;;24.45;15.48;;;0.90;99.90;;;;;;7376285;19;20355;-78
2023/01/23 02:46:03;;;;;;;27.42;16.88;;;0.90;99.90;;;;;;7378171;19;20321;-85
2023/01/23 02:48:28;;;;;;;27.83;17.35;;;0.90;99.90;;;;;;7377184;19;20892;-78
2023/01/23 02:50:55;;;;;;;25.35;16.02;;;0.90;99.90;;;;;;7377114;19;20304;-82
2023/01/23 02:53:21;;;;;;;23.40;14.35;;;0.90;99.90;;;;;;7375245;19;20993;-81
2023/01/23 02:55:50;;;;;;;24.90;15.00;;;0.90;99.90;;;;;;7381050;19;20698;-79
2023/01/23 03:01:03;;;;;;;23.65;15.73;;;1.00;99.90;;;;;;7272564;19;2004497;-78
2023/01/23 03:03:29;;;;;;;28.17;17.17;;;1.00;99.90;;;;;;7374971;19;20333;-75
2023/01/23 03:05:56;;;;;;;29.75;17.65;;;1.00;99.90;;;;;;7378418;19;20316;-82
2023/01/23 03:08:22;;;;;;;27.75;17.38;;;0.90;99.90;;;;;;7375687;19;20357;-77
2023/01/23 03:10:49;;;;;;;24.42;15.05;;;0.90;99.90;;;;;;7372614;19;20337;-81
2023/01/23 03:13:15;;;;;;;29.88;16.40;;;0.90;99.90;;;;;;7378143;19;20316;-80
2023/01/23 03:15:42;;;;;;;29.33;17.38;;;0.90;99.90;;;;;;7377937;19;20349;-78
2023/01/23 03:18:08;;;;;;;33.70;18.55;;;0.90;99.90;;;;;;7377501;19;20437;-83
2023/01/23 03:20:40;;;;;;;24.63;14.87;;;0.90;99.90;;;;;;7371800;19;20432;-77
2023/01/23 03:23:06;;;;;;;23.05;14.23;;;0.90;99.90;;;;;;7376732;19;20341;-82
2023/01/23 03:25:31;;;;;;;21.17;13.05;;;1.00;99.90;;;;;;7379405;19;20925;-84
2023/01/23 03:27:57;;;;;;;21.53;13.70;;;1.00;99.90;;;;;;7379712;19;20316;-84
2023/01/23 03:30:24;;;;;;;24.50;15.50;;;1.10;99.90;;;;;;7378154;19;20364;-81
2023/01/23 03:32:50;;;;;;;27.95;16.75;;;1.10;99.90;;;;;;7377318;19;20419;-81
2023/01/23 03:35:16;;;;;;;25.27;15.15;;;1.10;99.90;;;;;;7375747;19;20328;-80
2023/01/23 03:37:43;;;;;;;28.95;16.08;;;1.10;99.90;;;;;;7376910;19;20349;-82
2023/01/23 03:43:08;;;;;;;30.08;16.92;;;1.10;99.90;;;;;;7275374;19;2004534;-77
2023/01/23 03:45:37;;;;;;;22.63;14.50;;;1.10;99.90;;;;;;7376545;19;20357;-81
2023/01/23 03:48:02;;;;;;;27.35;15.80;;;1.10;99.90;;;;;;7379373;19;20313;-79
2023/01/23 03:50:29;;;;;;;24.50;16.27;;;1.10;99.90;;;;;;7373672;19;20685;-79
2023/01/23 03:52:55;;;;;;;23.48;16.30;;;1.10;99.90;;;;;;7379108;19;20376;-84
2023/01/23 03:55:21;;;;;;;33.50;18.03;;;1.20;99.90;;;;;;7374736;19;20424;-86
2023/01/23 03:57:47;;;;;;;26.58;16.65;;;1.10;99.90;;;;;;7377816;19;20316;-81
2023/01/23 04:00:33;;;;;;;29.50;17.27;;;1.10;99.90;;;;;;7268637;19;2004498;-77
2023/01/23 04:03:03;;;;;;;26.58;17.48;;;1.10;99.90;;;;;;7376260;19;20336;-81
2023/01/23 04:05:28;;;;;;;23.70;15.70;;;1.00;99.90;;;;;;7374861;19;20355;-76
2023/01/23 04:07:54;;;;;;;27.90;15.03;;;1.00;99.90;;;;;;7370315;19;20328;-84
2023/01/23 04:10:20;;;;;;;30.33;15.75;;;1.00;99.90;;;;;;7370903;19;21075;-79
2023/01/23 04:12:51;;;;;;;24.23;15.38;;;1.00;99.90;;;;;;7372615;19;20317;-80
2023/01/23 04:15:17;;;;;;;30.03;17.63;;;1.00;99.90;;;;;;7370207;19;20414;-79
2023/01/23 04:17:43;;;;;;;26.27;16.10;;;1.10;99.90;;;;;;7376554;19;20942;-79
2023/01/23 04:20:10;;;;;;;29.63;16.77;;;1.10;99.90;;;;;;7371589;19;20321;-82
2023/01/23 04:22:35;;;;;;;28.50;17.70;;;1.10;99.90;;;;;;7376825;19;20337;-78
2023/01/23 04:25:01;;;;;;;29.92;17.08;;;1.10;99.90;;;;;;7373901;19;20328;-80
2023/01/23 04:27:28;;;;;;;35.53;19.55;;;1.00;99.90;;;;;;7378237;19;20862;-76
2023/01/23 04:29:54;;;;;;;31.88;18.35;;;1.00;99.90;;;;;;7377483;19;20332;-77
2023/01/23 04:32:20;;;;;;;28.00;16.97;;;1.00;99.90;;;;;;7375610;19;20329;-79
2023/01/23 04:34:46;;;;;;;32.42;17.42;;;0.90;99.90;;;;;;7375396;19;20332;-77
2023/01/23 04:37:12;;;;;;;33.33;19.13;;;0.90;99.90;;;;;;7377672;19;20312;-83
2023/01/23 04:39:38;;;;;;;34.00;19.60;;;0.90;99.90;;;;;;7374897;19;20356;-81
2023/01/23 04:42:04;;;;;;;31.35;16.00;;;0.90;99.90;;;;;;7377117;19;20711;-77
2023/01/23 04:44:48;;;;;;;27.42;17.55;;;0.90;99.90;;;;;;7376219;19;20355;-78
2023/01/23 04:47:32;;;;;;;32.63;18.85;;;0.90;99.90;;;;;;7275812;19;2004405;-76
2023/01/23 04:49:59;;;;;;;34.72;20.17;;;0.90;99.90;;;;;;7372974;19;20339;-78
2023/01/23 04:52:24;;;;;;;29.50;18.33;;;0.90;99.90;;;;;;7379800;19;20832;-78
2023/01/23 04:54:55;;;;;;;29.75;16.10;;;0.80;99.90;;;;;;7382993;19;20323;-77
2023/01/23 04:57:20;;;;;;;30.88;18.55;;;0.80;99.90;;;;;;7383269;19;20331;-77
2023/01/23 04:59:49;;;;;;;28.73;18.57;;;0.80;99.90;;;;;;7381544;19;20300;-78
2023/01/23 05:02:15;;;;;;;33.22;19.63;;;0.80;99.90;;;;;;7378698;19;20351;-81
2023/01/23 05:04:42;;;;;;;28.83;15.52;;;0.80;99.90;;;;;;7381104;19;20356;-79
2023/01/23 05:07:10;;;;;;;31.63;18.45;;;0.80;99.90;;;;;;7388267;19;20305;-79
2023/01/23 05:09:39;;;;;;;33.97;19.88;;;0.80;99.90;;;;;;7383553;19;20846;-77
2023/01/23 05:12:06;;;;;;;32.05;19.45;;;0.80;99.90;;;;;;7385489;19;20355;-79
2023/01/23 05:14:35;;;;;;;31.00;16.65;;;0.80;99.90;;;;;;7385570;19;20329;-83
2023/01/23 05:17:01;;;;;;;29.42;16.25;;;0.80;99.90;;;;;;7384755;19;20339;-77
2023/01/23 05:19:34;;;;;;;29.40;18.37;;;0.80;99.90;;;;;;7388112;19;20674;-91
2023/01/23 05:22:02;;;;;;;35.50;20.90;;;0.80;99.90;;;;;;7384477;19;20667;-77
2023/01/23 05:24:28;;;;;;;30.77;19.20;;;0.80;99.90;;;;;;7382281;19;20348;-77
2023/01/23 05:26:55;;;;;;;27.63;16.38;;;0.80;99.90;;;;;;7385408;19;20340;-78
2023/01/23 05:29:23;;;;;;;32.88;18.70;;;0.80;99.90;;;;;;7382162;19;21195;-85
2023/01/23 05:32:00;;;;;;;30.00;17.92;;;0.80;99.90;;;;;;7282121;19;2004348;-86
2023/01/23 05:34:38;;;;;;;26.50;18.03;;;0.80;99.90;;;;;;7384119;19;20336;-79
2023/01/23 05:37:13;;;;;;;32.45;17.02;;;0.80;99.90;;;;;;7385837;19;20684;-82
2023/01/23 05:39:40;;;;;;;31.15;17.65;;;0.80;99.90;;;;;;7382675;19;20812;-82
2023/01/23 05:42:06;;;;;;;41.05;20.77;;;0.80;99.90;;;;;;7382767;19;20407;-80
2023/01/23 05:44:51;;;;;;;32.75;18.95;;;0.80;99.90;;;;;;7382103;19;20333;-76
2023/01/23 05:47:26;;;;;;;26.87;16.90;;;0.80;99.90;;;;;;7384699;19;20329;-81
2023/01/23 05:49:53;;;;;;;28.23;18.20;;;0.80;99.90;;;;;;7381691;19;20301;-77
2023/01/23 05:52:23;;;;;;;32.78;18.45;;;0.80;99.90;;;;;;7382246;19;20332;-78
2023/01/23 05:54:49;;;;;;;31.20;18.23;;;0.80;99.90;;;;;;7382871;19;20320;-81
2023/01/23 05:57:15;;;;;;;26.13;15.82;;;0.90;99.90;;;;;;7382602;19;20357;-81
2023/01/23 06:00:12;;;;;;;28.20;16.70;;;0.80;99.90;;;;;;7278040;19;2004537;-90
2023/01/23 06:02:41;;;;;;;28.90;17.48;;;0.90;99.90;;;;;;7376168;19;20363;-76
2023/01/23 06:05:33;;;;;;;29.98;17.70;;;0.90;99.90;;;;;;7268359;19;2004467;-77
2023/01/23 06:08:01;;;;;;;31.48;18.48;;;0.90;99.90;;;;;;7374557;19;20332;-80
2023/01/23 06:10:29;;;;;;;30.58;16.08;;;0.90;99.90;;;;;;7375623;19;20853;-80
2023/01/23 06:12:56;;;;;;;29.48;16.85;;;0.90;99.90;;;;;;7388588;19;20325;-83
2023/01/23 06:15:22;;;;;;;24.80;16.38;;;0.90;99.90;;;;;;7388476;19;20317;-81
2023/01/23 06:17:56;;;;;;;29.75;17.98;;;0.80;99.90;;;;;;7388269;19;20324;-81
2023/01/23 06:20:25;;;;;;;35.00;19.17;;;0.90;99.90;;;;;;7390492;19;20347;-82
2023/01/23 06:22:51;;;;;;;24.73;15.48;;;0.90;99.90;;;;;;7391360;19;20316;-80
2023/01/23 06:25:19;;;;;;;25.10;15.63;;;0.90;99.90;;;;;;7389823;19;20339;-86
2023/01/23 06:27:45;;;;;;;26.63;16.05;;;0.90;99.90;;;;;;7390140;19;20421;-80
2023/01/23 06:30:12;;;;;;;30.23;17.95;;;0.90;99.90;;;;;;7389389;19;20328;-84
2023/01/23 06:32:40;;;;;;;28.92;17.05;;;0.90;99.90;;;;;;7391401;19;20312;-81
2023/01/23 06:35:08;;;;;;;23.42;14.82;;;0.90;99.90;;;;;;7390610;19;20380;-78
2023/01/23 06:37:37;;;;;;;23.92;13.05;;;0.90;99.90;;;;;;7390307;19;20316;-79
2023/01/23 06:40:03;;;;;;;27.95;16.15;;;0.90;99.90;;;;;;7389861;19;20395;-84
2023/01/23 06:42:44;;;;;;;25.83;15.70;;;0.90;99.90;;;;;;7390252;19;20304;-82
2023/01/23 06:45:10;;;;;;;29.27;19.40;;;0.90;99.90;;;;;;7388050;19;20329;-85
2023/01/23 06:47:35;;;;;;;28.58;17.60;;;1.00;99.90;;;;;;7389695;19;20849;-79
2023/01/23 06:50:03;;;;;;;27.67;16.33;;;0.90;99.90;;;;;;7388670;19;20308;-84
2023/01/23 06:52:32;;;;;;;20.85;13.30;;;0.90;99.90;;;;;;7390318;19;20724;-83
2023/01/23 06:55:01;;;;;;;25.98;16.42;;;0.90;99.90;;;;;;7390465;19;20334;-80
2023/01/23 06:57:27;;;;;;;27.73;16.98;;;0.90;99.90;;;;;;7390355;19;20405;-79
2023/01/23 06:59:52;;;;;;;27.63;17.13;;;0.90;99.90;;;;;;7389462;19;20317;-82
2023/01/23 07:02:19;;;;;;;27.60;17.10;;;0.90;99.90;;;;;;7389460;19;20319;-81
2023/01/23 07:04:56;;;;;;;24.63;14.95;;;0.90;99.90;;;;;;7388833;19;20915;-80
2023/01/23 07:07:22;;;;;;;22.58;13.10;;;0.90;99.90;;;;;;7389714;19;20347;-83
2023/01/23 07:09:49;;;;;;;24.73;15.68;;;0.90;99.90;;;;;;7387767;19;20324;-81
2023/01/23 07:12:29;;;;;;;26.20;16.50;;;0.90;99.90;;;;;;7368061;19;20341;-80
2023/01/23 07:14:55;;;;;;;24.65;15.60;;;0.90;99.90;;;;;;7391894;19;20325;-82
2023/01/23 07:17:25;;;;;;;25.52;16.50;;;0.90;99.90;;;;;;7391565;19;20317;-82
2023/01/23 07:19:51;;;;;;;20.90;13.70;;;0.90;99.90;;;;;;7390357;19;20301;-79
2023/01/23 07:22:19;;;;;;;27.70;15.75;;;0.90;99.90;;;;;;7380333;19;20393;-80
2023/01/23 07:25:13;;;;;;;24.88;16.45;;;0.80;99.90;;;;;;7347207;19;20309;-85
2023/01/23 07:27:43;;;;;;;25.63;17.13;;;0.80;99.90;;;;;;7262961;19;2004609;-81
2023/01/23 07:30:11;;;;;;;30.20;18.20;;;0.80;99.90;;;;;;7379461;19;20428;-82
2023/01/23 07:32:38;;;;;;;24.73;14.10;;;0.80;99.90;;;;;;7365956;19;20341;-82
2023/01/23 07:35:04;;;;;;;21.17;14.65;;;0.80;99.90;;;;;;7365797;19;20321;-87
2023/01/23 07:37:30;;;;;;;28.05;16.13;;;0.80;99.90;;;;;;7362901;19;20373;-84
2023/01/23 07:39:58;;;;;;;29.03;17.73;;;0.90;99.90;;;;;;7391451;19;20316;-82
2023/01/23 07:42:23;;;;;;;28.00;17.08;;;0.80;99.90;;;;;;7387503;19;20359;-82
2023/01/23 07:44:59;;;;;;;23.75;14.45;;;0.90;99.90;;;;;;7345076;19;20671;-88
2023/01/23 07:47:25;;;;;;;27.25;16.70;;;0.80;99.90;;;;;;7392879;19;20329;-83
2023/01/23 07:49:53;;;;;;;24.55;15.05;;;0.80;99.90;;;;;;7346550;19;26237;-83
2023/01/23 07:52:19;;;;;;;26.15;17.60;;;0.80;99.90;;;;;;7350484;19;20329;-82
2023/01/23 07:54:45;;;;;;;25.83;16.05;;;0.80;99.90;;;;;;7367739;19;20327;-84
2023/01/23 07:57:11;;;;;;;22.23;13.33;;;0.80;99.90;;;;;;7368017;19;20316;-81
2023/01/23 07:59:36;;;;;;;25.92;16.42;;;0.80;99.90;;;;;;7388715;19;20335;-82
2023/01/23 08:02:02;;;;;;;24.38;16.23;;;0.90;99.90;;;;;;7346013;19;20321;-85
2023/01/23 08:04:29;;;;;;;27.77;17.37;;;0.90;99.90;;;;;;7384130;19;20321;-87
2023/01/23 08:06:56;;;;;;;20.52;13.10;;;0.90;99.90;;;;;;7388274;19;20308;-79
2023/01/23 08:09:22;;;;;;;22.08;13.98;;;0.90;99.90;;;;;;7385934;19;20329;-80
2023/01/23 08:11:52;;;;;;;24.50;14.98;;;0.90;99.90;;;;;;7382413;19;20320;-81
2023/01/23 08:14:18;;;;;;;22.33;15.68;;;1.00;99.90;;;;;;7345512;19;20332;-85
2023/01/23 08:16:49;;;;;;;22.42;15.48;;;1.00;99.90;;;;;;7386867;19;20433;-82
2023/01/23 08:19:27;;;;;;;25.85;16.65;;;1.00;99.90;;;;;;7365723;19;20332;-89
2023/01/23 08:21:54;;;;;;;24.33;13.93;;;1.10;99.90;;;;;;7380201;19;20305;-80
2023/01/23 08:24:20;;;;;;;26.17;16.77;;;1.00;99.90;;;;;;7366032;19;20286;-85
2023/01/23 08:26:57;;;;;;;25.17;16.80;;;1.10;99.90;;;;;;7369924;19;20867;-80
2023/01/23 08:29:25;;;;;;;26.80;17.10;;;1.00;99.90;;;;;;7388725;19;20326;-86
2023/01/23 08:31:54;;;;;;;24.05;15.25;;;1.00;99.90;;;;;;7366006;19;20332;-86
2023/01/23 08:34:22;;;;;;;28.30;16.55;;;1.10;99.90;;;;;;7389743;19;20315;-80
2023/01/23 08:36:49;;;;;;;27.27;16.75;;;1.10;99.90;;;;;;7386853;19;20328;-79
2023/01/23 08:39:32;;;;;;;24.92;16.05;;;1.20;99.90;;;;;;7368771;19;20348;-81
2023/01/23 08:41:58;;;;;;;23.17;15.07;;;1.10;99.90;;;;;;7393533;19;20342;-84
2023/01/23 08:44:24;;;;;;;20.67;13.80;;;1.20;99.90;;;;;;7393943;19;20324;-87
2023/01/23 08:46:49;;;;;;;18.65;13.32;;;1.20;99.90;;;;;;7394488;19;20324;-85
2023/01/23 08:49:18;;;;;;;23.77;15.40;;;1.30;99.90;;;;;;7368965;19;20339;-87
2023/01/23 08:52:25;;;;;;;29.02;16.98;;;1.30;99.90;;;;;;7313292;19;20369;-89
2023/01/23 08:56:00;;;;;;;29.50;17.20;;;1.30;99.90;;;;;;7417636;19;20322;-90
2023/01/23 09:02:22;;;;;;;25.63;16.05;;;1.20;99.90;;;;;;7369900;19;20331;-82
2023/01/23 09:04:53;;;;;;;26.90;16.55;;;1.20;99.90;;;;;;7374060;19;20369;-81
2023/01/23 09:07:19;;;;;;;22.60;15.52;;;1.20;99.90;;;;;;7396643;19;20375;-78
2023/01/23 09:09:45;;;;;;;27.40;15.70;;;1.20;99.90;;;;;;7389673;19;20336;-79
2023/01/23 09:12:10;;;;;;;28.58;17.15;;;1.20;99.90;;;;;;7381113;19;20419;-84
2023/01/23 09:14:38;;;;;;;25.98;16.67;;;1.20;99.90;;;;;;7404365;19;20313;-83
2023/01/23 09:17:04;;;;;;;28.58;17.13;;;1.20;99.90;;;;;;7406030;19;20384;-82
2023/01/23 09:19:31;;;;;;;22.52;14.60;;;1.20;99.90;;;;;;7391526;19;20325;-78
2023/01/23 09:21:56;;;;;;;23.63;17.02;;;1.30;99.90;;;;;;7391632;19;20827;-79
2023/01/23 09:24:22;;;;;;;24.73;15.53;;;1.30;99.90;;;;;;7391634;19;20304;-83
2023/01/23 09:26:48;;;;;;;21.50;15.13;;;1.30;99.90;;;;;;7388825;19;20345;-81
2023/01/23 09:29:14;;;;;;;26.87;16.97;;;1.40;99.90;;;;;;7384456;19;20324;-76
2023/01/23 09:31:39;;;;;;;20.98;14.52;;;1.40;99.90;;;;;;7382175;19;20458;-76
2023/01/23 09:34:06;;;;;;;24.23;16.50;;;1.40;99.90;;;;;;7382554;19;20408;-80
2023/01/23 09:36:32;;;;;;;26.08;16.67;;;1.40;99.90;;;;;;7384343;19;20395;-78
2023/01/23 09:38:57;;;;;;;21.80;14.55;;;1.40;99.90;;;;;;7387992;19;20312;-79
2023/01/23 09:41:25;;;;;;;25.50;16.13;;;1.40;99.90;;;;;;7386027;19;20453;-79
2023/01/23 09:44:08;;;;;;;23.42;15.10;;;1.40;99.90;;;;;;7384213;19;20308;-81
2023/01/23 09:46:46;;;;;;;26.23;16.73;;;1.40;99.90;;;;;;7283415;19;2004346;-76
2023/01/23 09:49:29;;;;;;;19.63;14.65;;;1.40;99.90;;;;;;7386100;19;20889;-79
2023/01/23 09:52:29;;;;;;;21.50;14.03;;;1.40;99.90;;;;;;7383345;19;20305;-82
2023/01/23 09:54:58;;;;;;;24.70;15.45;;;1.50;99.90;;;;;;7292503;19;2004296;-80
2023/01/23 09:57:27;;;;;;;27.02;16.70;;;1.50;99.90;;;;;;7394360;19;20305;-78
2023/01/23 10:00:06;;;;;;;20.58;14.60;;;1.50;99.90;;;;;;7393677;19;21240;-77
2023/01/23 10:02:31;;;;;;;23.98;15.40;;;1.50;99.90;;;;;;7290374;19;2004544;-78
2023/01/23 10:04:57;;;;;;;23.43;15.10;;;1.50;99.90;;;;;;7392612;19;20328;-77
2023/01/23 10:07:53;;;;;;;25.02;16.25;;;1.50;99.90;;;;;;7389180;19;20349;-77
2023/01/23 10:10:23;;;;;;;19.90;13.75;;;1.50;99.90;;;;;;7285922;19;2008408;-78
2023/01/23 10:12:56;;;;;;;24.25;15.50;;;1.60;99.90;;;;;;7387764;19;20349;-78
2023/01/23 10:15:46;;;;;;;27.73;17.17;;;1.60;99.90;;;;;;7390014;19;20316;-79
2023/01/23 10:18:18;;;;;;;24.63;15.52;;;1.60;99.90;;;;;;7285552;19;2005769;-79
2023/01/23 10:20:50;;;;;;;24.75;15.30;;;1.50;99.90;;;;;;7386980;19;20341;-79
2023/01/23 10:23:40;;;;;;;23.20;15.57;;;1.50;99.90;;;;;;7387752;19;20313;-77
2023/01/23 10:26:18;;;;;;;20.60;14.93;;;1.50;99.90;;;;;;7285956;19;2004578;-78
2023/01/23 10:28:44;;;;;;;22.25;16.27;;;1.60;99.90;;;;;;7388756;19;20436;-78
2023/01/23 10:31:17;;;;;;;22.58;15.68;;;1.60;99.90;;;;;;7389622;19;20336;-77
2023/01/23 10:34:05;;;;;;;26.15;16.00;;;1.60;99.90;;;;;;7393169;19;20348;-83
2023/01/23 10:36:59;;;;;;;22.67;14.77;;;1.60;99.90;;;;;;7288814;19;2004522;-77
2023/01/23 10:39:26;;;;;;;25.92;16.58;;;1.60;99.90;;;;;;7388448;19;20329;-78
2023/01/23 10:41:52;;;;;;;18.98;13.80;;;1.60;99.90;;;;;;7389101;19;20309;-78
2023/01/23 10:44:19;;;;;;;20.10;14.97;;;1.60;99.90;;;;;;7390446;19;20328;-78
2023/01/23 10:46:49;;;;;;;23.60;15.13;;;1.60;99.90;;;;;;7390458;19;20353;-79
2023/01/23 10:49:34;;;;;;;25.77;16.50;;;1.70;99.90;;;;;;7389481;19;20317;-79
2023/01/23 10:52:00;;;;;;;23.55;15.02;;;1.60;99.90;;;;;;7285342;19;2004436;-81
2023/01/23 10:54:27;;;;;;;23.30;16.10;;;1.60;99.90;;;;;;7387669;19;20329;-77
2023/01/23 10:57:15;;;;;;;27.58;16.73;;;1.60;99.90;;;;;;7386703;19;20309;-78
2023/01/23 11:00:20;;;;;;;22.58;14.23;;;1.60;99.90;;;;;;7281657;19;2012879;-78
2023/01/23 11:02:46;;;;;;;28.67;15.77;;;1.60;99.90;;;;;;7180919;19;2015051;-78
2023/01/23 11:05:39;;;;;;;23.33;16.17;;;1.60;99.90;;;;;;7388851;19;20337;-79
2023/01/23 11:08:40;;;;;;;26.85;16.55;;;1.60;99.90;;;;;;7284467;19;2004220;-78
2023/01/23 11:11:15;;;;;;;27.77;17.43;;;1.50;99.90;;;;;;7286006;19;2004371;-82
2023/01/23 11:13:46;;;;;;;27.50;18.00;;;1.60;99.90;;;;;;7386653;19;21391;-80
2023/01/23 11:16:15;;;;;;;27.50;17.23;;;1.50;99.90;;;;;;7387334;19;20313;-77
2023/01/23 11:18:42;;;;;;;26.03;17.67;;;1.50;99.90;;;;;;7387443;19;20320;-85
2023/01/23 11:21:20;;;;;;;25.20;16.53;;;1.50;99.90;;;;;;7387544;19;20308;-79
2023/01/23 11:23:45;;;;;;;29.38;17.77;;;1.60;99.90;;;;;;7387044;19;20313;-77
2023/01/23 11:26:29;;;;;;;28.23;17.13;;;1.60;99.90;;;;;;7387270;19;20396;-79
2023/01/23 11:28:57;;;;;;;30.13;18.13;;;1.60;99.90;;;;;;7387766;19;20301;-79
2023/01/23 11:31:25;;;;;;;25.42;17.48;;;1.60;99.90;;;;;;7384504;19;20378;-78
2023/01/23 11:34:13;;;;;;;27.17;17.90;;;1.60;99.90;;;;;;7386462;19;20856;-81
2023/01/23 11:37:00;;;;;;;26.77;17.70;;;1.60;99.90;;;;;;7285204;19;2004346;-80
2023/01/23 11:39:43;;;;;;;28.73;17.58;;;1.50;99.90;;;;;;7398298;19;20320;-89
2023/01/23 11:42:12;;;;;;;24.38;17.08;;;1.50;99.90;;;;;;7291522;19;2004346;-82
2023/01/23 11:44:41;;;;;;;24.15;16.35;;;1.50;99.90;;;;;;7393781;19;20677;-80
2023/01/23 11:47:35;;;;;;;29.15;17.95;;;1.60;99.90;;;;;;7386348;19;20691;-79
2023/01/23 11:50:14;;;;;;;26.27;16.77;;;1.50;99.90;;;;;;7283575;19;2016558;-79
2023/01/23 11:52:55;;;;;;;24.95;16.40;;;1.60;99.90;;;;;;7387991;19;20316;-78
2023/01/23 11:55:34;;;;;;;23.08;16.75;;;1.60;99.90;;;;;;7387292;19;20313;-80
2023/01/23 11:58:32;;;;;;;23.83;15.68;;;1.70;99.90;;;;;;7282748;19;2016489;-82
2023/01/23 12:01:36;;;;;;;23.43;15.37;;;1.70;99.90;;;;;;7385120;19;20301;-78
2023/01/23 12:04:13;;;;;;;23.05;14.80;;;1.70;99.90;;;;;;7178145;19;2019752;-77
2023/01/23 12:06:46;;;;;;;23.30;15.90;;;1.70;99.90;;;;;;7384087;19;20333;-76
2023/01/23 12:09:15;;;;;;;24.88;16.02;;;1.70;99.90;;;;;;7383912;19;20328;-78
2023/01/23 12:12:05;;;;;;;25.40;15.65;;;1.70;99.90;;;;;;7384596;19;20309;-77
2023/01/23 12:14:54;;;;;;;24.92;15.70;;;1.70;99.90;;;;;;7278565;19;2004436;-78
2023/01/23 12:17:45;;;;;;;22.05;15.23;;;1.60;99.90;;;;;;7382159;19;20340;-78
2023/01/23 12:20:30;;;;;;;23.23;16.63;;;1.50;99.90;;;;;;7280437;19;2004992;-78
2023/01/23 12:23:03;;;;;;;20.40;14.60;;;1.50;99.90;;;;;;7385508;19;20308;-76
2023/01/23 12:25:33;;;;;;;23.67;15.73;;;1.50;99.90;;;;;;7382189;19;20307;-79
2023/01/23 12:28:33;;;;;;;22.65;14.60;;;1.60;99.90;;;;;;7382765;19;20313;-79
2023/01/23 12:31:13;;;;;;;22.93;15.10;;;1.60;99.90;;;;;;7178899;19;2004425;-78
2023/01/23 12:33:55;;;;;;;23.83;15.27;;;1.60;99.90;;;;;;7282692;19;2004413;-78
2023/01/23 12:36:29;;;;;;;20.63;14.70;;;1.70;99.90;;;;;;7384155;19;20324;-78
2023/01/23 12:39:25;;;;;;;22.02;14.35;;;1.70;99.90;;;;;;7382525;19;20328;-77
2023/01/23 12:41:52;;;;;;;20.42;14.25;;;1.60;99.90;;;;;;7280011;19;2004324;-78
2023/01/23 12:44:29;;;;;;;21.47;13.60;;;1.60;99.90;;;;;;7381564;19;20644;-80
2023/01/23 12:47:07;;;;;;;23.33;15.20;;;1.60;99.90;;;;;;7381816;19;20309;-79
2023/01/23 12:49:43;;;;;;;20.58;14.02;;;1.60;99.90;;;;;;7280564;19;2004475;-78
2023/01/23 12:52:17;;;;;;;20.13;14.30;;;1.70;99.90;;;;;;7382300;19;20325;-78
2023/01/23 12:54:49;;;;;;;21.08;14.38;;;1.60;99.90;;;;;;7380990;19;20323;-78
2023/01/23 12:57:38;;;;;;;20.73;14.80;;;1.60;99.90;;;;;;7381343;19;20347;-78
2023/01/23 13:00:17;;;;;;;22.50;13.90;;;1.60;99.90;;;;;;7278910;19;2004696;-78
2023/01/23 13:03:01;;;;;;;20.20;13.70;;;1.70;99.90;;;;;;7279705;19;2004495;-79
2023/01/23 13:05:31;;;;;;;21.10;14.13;;;1.70;99.90;;;;;;7383247;19;20321;-78